Marianna, FL

10:03 AM CST on February 11, 2016 (GMT -0600)
Greenfield Subdivision | | Change Station
CLOSE
Current Station
Personal Weather Station
Location: Marianna, FL
Elevation: 157 ft
Nearby Weather Stations

Elev 157 ft 30.81 °N, 85.19 °W | Updated 5 minutes ago

Clear
Clear
60.8 °F
Feels Like 60.8 °F
N
2.0
Wind Variable Wind from SSW
Gusts 10.0 mph

Today
High -- | Low -- °F
--% Chance of Precip.
Yesterday
High -- | Low -- °F
Precip. -- in
Pressure 30.21 in
Visibility 10.0 miles
Clouds Clear
Dew Point 44 °F
Humidity 55%
Rainfall 0.00 in
Snow Depth Not available.
6:25 AM 5:24 PM
Waxing Crescent, 12% visible
METAR K1J0 111558Z AUTO 19007KT 10SM CLR 16/06 A3025 RMK AO2 SLP228 T01560061
Pressure 30.21 in
Visibility 10.0 miles
Clouds Clear
Dew Point 44 °F
Humidity 55%
Rainfall 0.00 in
Snow Depth Not available.
6:25 AM 5:24 PM
Waxing Crescent, 12% visible
METAR K1J0 111558Z AUTO 19007KT 10SM CLR 16/06 A3025 RMK AO2 SLP228 T01560061

10-Day Weather Forecast

Almanac

Astronomy

Feb. 11, 2016 Rise Set
Actual Time
Civil Twilight
Nautical Twilight
Astronomical Twilight
Moon
Length of Visible Light
Length of Day
Tomorrow will be .
, % of the Moon is Illuminated

Today's Extremes

State Highs State Lows

Community

WunderPhotos

Upload Photos

1,892,083 photos uploaded!

WunderBlog® & News

Nearby

Air Quality

  Air Quality AQ Index Pollutant
Not available.

Snow Depth

Station Depth Elevation

Earthquake Activity

City Distance Mag. Time & Date
Minimum magnitude displayed is 2.5.

Coastal Water Temperatures

Place Temperature

Stations

Nearby Weather Stations

Station Location Temp. Windchill Dew Point Humidity Wind Precip. Elev Updated Type
                   

Watches & Warnings

There are currently no watches in effect.